Time;durP1;ratioP1;P1;durP2;ratioP2;P2;SDS_P1;SDS_P2;PMS_P1;PMS_P2;Temp;Humidity;BMP_temperature;BMP_pressure;BME280_temperature;BME280_humidity;BME280_pressure;Samples;Min_cycle;Max_cycle;Signal;HPM_P1;HPM_P2
2021/09/27 00:00:45;;;;;;;13.23;12.02;;;17.00;99.90;;;;;;4991287;28;20116;-51
2021/09/27 00:03:12;;;;;;;13.50;12.18;;;17.00;99.90;;;;;;4992725;28;20481;-52
2021/09/27 00:05:37;;;;;;;14.32;12.93;;;17.00;99.90;;;;;;4992787;28;20037;-50
2021/09/27 00:08:04;;;;;;;14.45;13.05;;;17.10;99.90;;;;;;4992905;28;20060;-51
2021/09/27 00:10:35;;;;;;;14.48;11.95;;;17.00;99.90;;;;;;4992658;28;20026;-50
2021/09/27 00:13:01;;;;;;;13.77;12.38;;;17.10;99.90;;;;;;4992574;28;20026;-49
2021/09/27 00:15:31;;;;;;;14.15;12.85;;;17.10;99.90;;;;;;4992622;28;20054;-50
2021/09/27 00:17:57;;;;;;;15.07;13.40;;;17.10;99.90;;;;;;4992654;28;20018;-51
2021/09/27 00:20:23;;;;;;;14.00;12.70;;;17.10;99.90;;;;;;4992372;28;20031;-51
2021/09/27 00:22:48;;;;;;;14.73;13.23;;;17.10;99.90;;;;;;4992427;28;20026;-51
2021/09/27 00:25:16;;;;;;;14.25;12.95;;;17.10;99.90;;;;;;4991939;28;20022;-50
2021/09/27 00:27:42;;;;;;;17.13;15.32;;;17.10;99.90;;;;;;4992312;28;20026;-51
2021/09/27 00:30:08;;;;;;;15.73;14.07;;;17.10;99.90;;;;;;4992407;28;20027;-52
2021/09/27 00:32:34;;;;;;;16.08;14.18;;;17.10;99.90;;;;;;4990268;28;20050;-52
2021/09/27 00:35:00;;;;;;;15.30;13.70;;;17.00;99.90;;;;;;4990656;28;20026;-50
2021/09/27 00:37:26;;;;;;;16.83;15.13;;;17.00;99.90;;;;;;4992084;28;20038;-52
2021/09/27 00:39:51;;;;;;;16.63;15.02;;;17.10;99.90;;;;;;4992091;28;20030;-50
2021/09/27 00:42:17;;;;;;;17.20;15.50;;;17.00;99.90;;;;;;4992205;28;20030;-51
2021/09/27 00:44:44;;;;;;;17.48;15.75;;;17.10;99.90;;;;;;4992250;28;20183;-51
2021/09/27 00:47:09;;;;;;;17.23;15.45;;;17.10;99.90;;;;;;4991900;28;20022;-50
2021/09/27 00:49:35;;;;;;;15.95;14.35;;;17.10;99.90;;;;;;4991575;28;20022;-50
2021/09/27 00:52:01;;;;;;;16.83;15.13;;;17.10;99.90;;;;;;4992053;28;20097;-51
2021/09/27 00:54:31;;;;;;;17.30;15.55;;;17.10;99.90;;;;;;4991967;28;20030;-52
2021/09/27 00:57:03;;;;;;;17.73;16.02;;;17.00;99.90;;;;;;4990357;28;20114;-49
2021/09/27 00:59:31;;;;;;;16.60;14.95;;;17.10;99.90;;;;;;4988924;28;20030;-51
2021/09/27 01:01:56;;;;;;;16.58;14.98;;;17.00;99.90;;;;;;4987335;28;20038;-50
2021/09/27 01:04:22;;;;;;;16.00;14.43;;;17.00;99.90;;;;;;4990254;28;20076;-51
2021/09/27 01:07:09;;;;;;;16.70;15.05;;;17.00;99.90;;;;;;4991755;28;20081;-50
2021/09/27 01:09:47;;;;;;;17.30;15.60;;;17.00;99.90;;;;;;4991260;28;20117;-54
2021/09/27 01:12:31;;;;;;;16.45;14.70;;;17.00;99.90;;;;;;4991797;28;20030;-51
2021/09/27 01:15:07;;;;;;;14.82;13.43;;;17.00;99.90;;;;;;4991536;28;20030;-52
2021/09/27 01:17:56;;;;;;;14.73;13.23;;;17.00;99.90;;;;;;4982438;28;20085;-51
2021/09/27 01:20:21;;;;;;;15.30;13.82;;;17.00;99.90;;;;;;4985310;28;20481;-51
2021/09/27 01:23:38;;;;;;;16.50;14.80;;;17.00;99.90;;;;;;4991481;28;20030;-50
2021/09/27 01:26:29;;;;;;;15.20;13.60;;;17.00;99.90;;;;;;4990989;28;20058;-50
2021/09/27 01:29:35;;;;;;;16.83;13.80;;;17.00;99.90;;;;;;4990162;28;20504;-51
2021/09/27 01:32:31;;;;;;;15.20;13.70;;;17.00;99.90;;;;;;4989533;28;20405;-52
2021/09/27 01:35:05;;;;;;;16.20;14.53;;;16.90;99.90;;;;;;4991103;28;20261;-51
2021/09/27 01:37:54;;;;;;;18.30;16.15;;;16.90;99.90;;;;;;4991107;28;20026;-51
2021/09/27 01:40:47;;;;;;;16.90;15.13;;;17.00;99.90;;;;;;4990739;28;20027;-50
2021/09/27 01:43:19;;;;;;;16.40;14.90;;;17.00;99.90;;;;;;4991428;28;20034;-50
2021/09/27 01:46:12;;;;;;;17.23;15.43;;;17.00;99.90;;;;;;4991377;28;20114;-49
2021/09/27 01:48:49;;;;;;;19.20;14.70;;;17.00;99.90;;;;;;4991099;28;20033;-50
2021/09/27 01:51:39;;;;;;;15.38;13.85;;;17.00;99.90;;;;;;4990268;28;20018;-50
2021/09/27 01:54:19;;;;;;;14.23;12.90;;;17.00;99.90;;;;;;4991051;28;20025;-51
2021/09/27 01:57:10;;;;;;;15.45;13.85;;;17.00;99.90;;;;;;4990993;28;20026;-49
2021/09/27 01:59:54;;;;;;;15.73;14.32;;;17.00;99.90;;;;;;4989073;28;20045;-50
2021/09/27 02:02:40;;;;;;;17.40;15.60;;;17.00;99.90;;;;;;4990992;28;20030;-50
2021/09/27 02:05:41;;;;;;;15.50;13.90;;;17.00;99.90;;;;;;4991008;28;20030;-51
2021/09/27 02:08:37;;;;;;;17.95;16.05;;;17.00;99.90;;;;;;4990941;28;20033;-50
2021/09/27 02:11:16;;;;;;;17.48;14.20;;;17.00;99.90;;;;;;4990261;28;20042;-50
2021/09/27 02:14:06;;;;;;;17.38;15.57;;;17.00;99.90;;;;;;4992548;28;20030;-49
2021/09/27 02:17:09;;;;;;;18.35;16.48;;;17.00;99.90;;;;;;4994802;28;20113;-49
2021/09/27 02:19:58;;;;;;;17.83;15.70;;;17.00;99.90;;;;;;4994747;28;20030;-50
2021/09/27 02:22:47;;;;;;;17.08;15.30;;;17.00;99.90;;;;;;4994706;28;20052;-51
2021/09/27 02:25:15;;;;;;;14.77;13.38;;;17.00;99.90;;;;;;4994354;28;20109;-51
2021/09/27 02:27:43;;;;;;;15.73;14.18;;;17.00;99.90;;;;;;4995047;28;20066;-51
2021/09/27 02:30:12;;;;;;;16.40;14.90;;;17.00;99.90;;;;;;4994488;28;20026;-50
2021/09/27 02:32:54;;;;;;;19.88;15.18;;;17.00;99.90;;;;;;4994594;28;20026;-51
2021/09/27 02:35:32;;;;;;;16.20;14.52;;;17.00;99.90;;;;;;4994554;28;20132;-50
2021/09/27 02:38:24;;;;;;;15.80;14.20;;;17.00;99.90;;;;;;4994477;28;20026;-50
2021/09/27 02:41:18;;;;;;;15.90;14.30;;;17.00;99.90;;;;;;4993873;28;20042;-52
2021/09/27 02:43:45;;;;;;;16.65;15.00;;;17.00;99.90;;;;;;4992841;28;20041;-51
2021/09/27 02:46:13;;;;;;;16.20;14.50;;;17.00;99.90;;;;;;4994537;28;20026;-52
2021/09/27 02:48:40;;;;;;;15.82;14.27;;;17.00;99.90;;;;;;4994757;28;20022;-51
2021/09/27 02:51:08;;;;;;;16.30;14.73;;;17.00;99.90;;;;;;4994181;28;20114;-51
2021/09/27 02:53:35;;;;;;;15.43;13.95;;;17.00;99.90;;;;;;4994152;28;20081;-52
2021/09/27 02:56:18;;;;;;;16.58;14.98;;;17.00;99.90;;;;;;4994224;28;20045;-50
2021/09/27 02:59:12;;;;;;;17.35;15.65;;;17.00;99.90;;;;;;4992804;28;20026;-51
2021/09/27 03:02:07;;;;;;;17.80;15.95;;;17.00;99.90;;;;;;4994089;28;20128;-50
2021/09/27 03:04:56;;;;;;;19.58;17.58;;;17.00;99.90;;;;;;4994121;28;20029;-51
2021/09/27 03:07:43;;;;;;;21.02;18.77;;;17.00;99.90;;;;;;4993995;28;20038;-51
2021/09/27 03:10:25;;;;;;;19.88;17.83;;;17.00;99.90;;;;;;4993763;28;20039;-51
2021/09/27 03:12:58;;;;;;;22.10;19.63;;;17.10;99.90;;;;;;4993904;28;20030;-52
2021/09/27 03:15:58;;;;;;;22.02;19.73;;;17.10;99.90;;;;;;4993626;28;20518;-50
2021/09/27 03:18:45;;;;;;;21.92;19.20;;;17.10;99.90;;;;;;4993990;28;20214;-50
2021/09/27 03:21:28;;;;;;;21.15;18.88;;;17.10;99.90;;;;;;4994191;28;20409;-50
2021/09/27 03:24:24;;;;;;;20.52;18.38;;;17.10;99.90;;;;;;4993671;28;20018;-50
2021/09/27 03:29:43;;;;;;;21.23;18.27;;;17.10;99.90;;;;;;4994921;23;20137;-51
2021/09/27 03:32:33;;;;;;;22.92;20.50;;;17.10;99.90;;;;;;4974137;28;20057;-56
2021/09/27 03:35:20;;;;;;;25.95;22.10;;;17.20;99.90;;;;;;4974152;28;20034;-54
2021/09/27 03:38:02;;;;;;;26.27;23.45;;;17.10;99.90;;;;;;4973688;28;20035;-52
2021/09/27 03:40:46;;;;;;;25.38;21.52;;;17.20;99.90;;;;;;4973605;28;20035;-54
2021/09/27 03:43:26;;;;;;;23.77;21.30;;;17.20;99.90;;;;;;4973776;28;20031;-56
2021/09/27 03:45:57;;;;;;;25.40;22.63;;;17.20;99.90;;;;;;4973588;28;20108;-52
2021/09/27 03:48:36;;;;;;;26.30;21.67;;;17.20;99.90;;;;;;4973598;28;20031;-53
2021/09/27 03:51:31;;;;;;;28.75;22.67;;;17.20;99.90;;;;;;4973584;28;20097;-51
2021/09/27 03:54:22;;;;;;;25.70;21.52;;;17.20;99.90;;;;;;4973476;28;20433;-53
2021/09/27 03:57:11;;;;;;;23.63;21.23;;;17.20;99.90;;;;;;4973663;28;20141;-51
2021/09/27 03:59:46;;;;;;;23.27;20.90;;;17.20;99.90;;;;;;4971416;28;20034;-55
2021/09/27 04:02:23;;;;;;;26.42;21.67;;;17.20;99.90;;;;;;4973132;28;20505;-55
2021/09/27 04:05:04;;;;;;;23.02;20.63;;;17.20;99.90;;;;;;4973530;28;20508;-51
2021/09/27 04:07:48;;;;;;;21.50;19.23;;;17.20;99.90;;;;;;4973215;28;20031;-52
2021/09/27 04:10:41;;;;;;;23.02;20.60;;;17.20;99.90;;;;;;4973045;28;20038;-51
2021/09/27 04:13:23;;;;;;;19.63;17.55;;;17.20;99.90;;;;;;4973398;28;20027;-52
2021/09/27 04:16:11;;;;;;;21.48;17.92;;;17.20;99.90;;;;;;4973181;28;20085;-53
2021/09/27 04:18:43;;;;;;;18.75;16.75;;;17.20;99.90;;;;;;4973000;28;20401;-53
2021/09/27 04:21:19;;;;;;;20.65;18.48;;;17.20;99.90;;;;;;4972847;28;20287;-50
2021/09/27 04:24:36;;;;;;;22.58;20.27;;;17.20;99.90;;;;;;4973304;28;20097;-54
2021/09/27 04:27:20;;;;;;;22.02;18.90;;;17.20;99.90;;;;;;4970538;28;20370;-49
2021/09/27 04:29:55;;;;;;;18.52;16.58;;;17.20;99.90;;;;;;4972701;28;20504;-49
2021/09/27 04:32:34;;;;;;;19.50;17.55;;;17.20;99.90;;;;;;4972970;28;20031;-50
2021/09/27 04:35:29;;;;;;;19.25;17.27;;;17.20;99.90;;;;;;4971581;28;20037;-49
2021/09/27 04:37:54;;;;;;;18.15;16.42;;;17.20;99.90;;;;;;4971501;28;20097;-51
2021/09/27 04:40:32;;;;;;;18.20;15.90;;;17.20;99.90;;;;;;4972355;28;20026;-49
2021/09/27 04:43:06;;;;;;;16.92;15.23;;;17.20;99.90;;;;;;4972640;28;20055;-50
2021/09/27 04:46:10;;;;;;;18.77;16.85;;;17.10;99.90;;;;;;4972761;28;20452;-52
2021/09/27 04:48:58;;;;;;;18.40;14.77;;;17.10;99.90;;;;;;4972114;28;20051;-55
2021/09/27 04:51:37;;;;;;;18.90;16.17;;;17.10;99.90;;;;;;4972245;28;20082;-50
2021/09/27 04:54:21;;;;;;;15.40;13.80;;;17.10;99.90;;;;;;4972523;28;20023;-50
2021/09/27 04:57:10;;;;;;;15.95;14.35;;;17.10;99.90;;;;;;4972747;28;20031;-50
2021/09/27 04:59:47;;;;;;;16.13;14.43;;;17.10;99.90;;;;;;4971978;28;20413;-50
2021/09/27 05:02:12;;;;;;;16.73;15.02;;;17.10;99.90;;;;;;4972249;28;20042;-51
2021/09/27 05:04:48;;;;;;;16.88;15.25;;;17.10;99.90;;;;;;4970883;28;20027;-55
2021/09/27 05:07:28;;;;;;;15.60;14.20;;;17.10;99.90;;;;;;4971923;28;20031;-50
2021/09/27 05:10:20;;;;;;;17.60;15.80;;;17.10;99.90;;;;;;4972005;28;20073;-53
2021/09/27 05:13:05;;;;;;;15.20;13.65;;;17.10;99.90;;;;;;4972306;28;20034;-55
2021/09/27 05:15:46;;;;;;;14.88;13.38;;;17.10;99.90;;;;;;4971837;28;20031;-54
2021/09/27 05:18:24;;;;;;;16.15;14.65;;;17.10;99.90;;;;;;4972088;28;20026;-50
2021/09/27 05:21:19;;;;;;;17.80;15.77;;;17.10;99.90;;;;;;4971571;28;20023;-52
2021/09/27 05:23:56;;;;;;;19.83;17.83;;;17.10;99.90;;;;;;4971737;28;20058;-52
2021/09/27 05:26:36;;;;;;;16.40;14.80;;;17.10;99.90;;;;;;4970430;28;20027;-52
2021/09/27 05:29:23;;;;;;;18.00;16.30;;;17.10;99.90;;;;;;4970585;28;20038;-51
2021/09/27 05:31:51;;;;;;;15.85;14.32;;;17.10;99.90;;;;;;4972278;28;20053;-52
2021/09/27 05:34:48;;;;;;;17.92;16.10;;;17.10;99.90;;;;;;4971944;28;20038;-55
2021/09/27 05:37:19;;;;;;;;;;;17.10;99.90;;;;;;4972328;28;20039;-54
2021/09/27 05:39:51;;;;;;;17.60;15.77;;;17.10;99.90;;;;;;4971558;28;19910;-50
2021/09/27 05:42:29;;;;;;;23.52;19.35;;;17.10;99.90;;;;;;4969700;28;20506;-54
2021/09/27 05:45:07;;;;;;;22.20;19.95;;;17.10;99.90;;;;;;4970504;28;20027;-53
2021/09/27 05:47:54;;;;;;;23.13;20.63;;;17.10;99.90;;;;;;4971774;28;20027;-51
2021/09/27 05:50:39;;;;;;;22.58;19.65;;;17.20;99.90;;;;;;4971350;28;20031;-51
2021/09/27 05:53:35;;;;;;;21.58;19.30;;;17.20;99.90;;;;;;4970536;28;20027;-51
2021/09/27 05:56:06;;;;;;;20.70;18.58;;;17.20;99.90;;;;;;4971707;28;20122;-50
2021/09/27 05:58:54;;;;;;;19.58;17.48;;;17.20;99.90;;;;;;4971625;28;20054;-52
2021/09/27 06:01:54;;;;;;;19.73;17.40;;;17.20;99.90;;;;;;4969785;28;20042;-55
2021/09/27 06:04:28;;;;;;;21.17;18.05;;;17.20;99.90;;;;;;4971708;28;20494;-51
2021/09/27 06:07:15;;;;;;;21.95;19.65;;;17.20;99.90;;;;;;4971506;28;20023;-52
2021/09/27 06:10:01;;;;;;;19.63;17.70;;;17.20;99.90;;;;;;4971116;28;20085;-53
2021/09/27 06:12:52;;;;;;;19.75;17.70;;;17.30;99.90;;;;;;4971474;28;20078;-53
2021/09/27 06:15:19;;;;;;;21.10;18.83;;;17.30;99.90;;;;;;4971212;28;20038;-54
2021/09/27 06:18:29;;;;;;;23.17;20.23;;;17.30;99.90;;;;;;4971344;28;20081;-53
2021/09/27 06:21:03;;;;;;;20.55;18.35;;;17.30;99.90;;;;;;4968485;28;20039;-56
2021/09/27 06:23:44;;;;;;;22.00;19.67;;;17.30;99.90;;;;;;4971172;28;20409;-53
2021/09/27 06:26:12;;;;;;;19.25;17.20;;;17.30;99.90;;;;;;4970899;28;20027;-55
2021/09/27 06:29:00;;;;;;;20.17;18.23;;;17.30;99.90;;;;;;4971049;28;20486;-56
2021/09/27 06:31:33;;;;;;;24.67;21.95;;;17.40;99.90;;;;;;4971630;28;20106;-51
2021/09/27 06:34:34;;;;;;;20.83;18.63;;;17.40;99.90;;;;;;4971660;28;20027;-55
2021/09/27 06:37:01;;;;;;;25.55;22.00;;;17.40;99.90;;;;;;4969821;28;20039;-51
2021/09/27 06:39:29;;;;;;;23.85;20.40;;;17.40;99.90;;;;;;4971082;28;20030;-55
2021/09/27 06:41:55;;;;;;;21.10;18.90;;;17.40;99.90;;;;;;4971192;28;20027;-52
2021/09/27 06:44:24;;;;;;;22.35;20.05;;;17.40;99.90;;;;;;4971385;28;20646;-51
2021/09/27 06:46:51;;;;;;;27.00;22.90;;;17.40;99.90;;;;;;4971143;28;20512;-52
2021/09/27 06:49:17;;;;;;;24.75;21.98;;;17.40;99.90;;;;;;4969186;28;20046;-54
2021/09/27 06:51:43;;;;;;;27.65;22.13;;;17.40;99.90;;;;;;4971191;28;20482;-52
2021/09/27 06:54:09;;;;;;;25.13;21.85;;;17.40;99.90;;;;;;4971175;28;20054;-53
2021/09/27 06:56:37;;;;;;;22.65;19.60;;;17.40;99.90;;;;;;4971051;28;20037;-51
2021/09/27 06:59:03;;;;;;;25.50;22.80;;;17.40;99.90;;;;;;4970714;28;20588;-54
2021/09/27 07:01:29;;;;;;;25.65;21.33;;;17.40;99.90;;;;;;4972136;28;20027;-54
2021/09/27 07:03:55;;;;;;;23.95;20.95;;;17.40;99.90;;;;;;4974859;28;20015;-56
2021/09/27 07:06:20;;;;;;;22.27;19.92;;;17.40;99.90;;;;;;4974961;28;20023;-54
2021/09/27 07:08:46;;;;;;;22.52;19.88;;;17.40;99.90;;;;;;4974400;28;20029;-54
2021/09/27 07:11:15;;;;;;;22.60;19.92;;;17.40;99.90;;;;;;4974263;28;20033;-53
2021/09/27 07:13:42;;;;;;;22.58;20.35;;;17.40;99.90;;;;;;4974406;28;20139;-57
2021/09/27 07:16:08;;;;;;;21.40;19.25;;;17.40;99.90;;;;;;4973978;28;20031;-55
2021/09/27 07:18:34;;;;;;;23.52;20.85;;;17.50;99.90;;;;;;4974015;28;20482;-52
2021/09/27 07:21:00;;;;;;;24.95;22.27;;;17.50;99.90;;;;;;4974091;28;20081;-54
2021/09/27 07:23:29;;;;;;;25.40;22.55;;;17.50;99.90;;;;;;4974288;28;20106;-56
2021/09/27 07:25:54;;;;;;;24.45;21.85;;;17.50;99.90;;;;;;4973988;28;20085;-55
2021/09/27 07:28:22;;;;;;;24.60;21.90;;;17.50;99.90;;;;;;4974071;28;20034;-54
2021/09/27 07:30:50;;;;;;;27.10;23.80;;;17.60;99.90;;;;;;4974035;28;20018;-52
2021/09/27 07:33:17;;;;;;;26.58;23.65;;;17.60;99.90;;;;;;4974154;28;20485;-55
2021/09/27 07:35:42;;;;;;;25.25;22.67;;;17.60;99.90;;;;;;4974443;28;20110;-55
2021/09/27 07:38:08;;;;;;;25.35;20.30;;;17.60;99.90;;;;;;4974229;28;20085;-55
2021/09/27 07:40:36;;;;;;;26.42;23.73;;;17.70;99.90;;;;;;4974031;28;20022;-55
2021/09/27 07:43:01;;;;;;;27.10;22.63;;;17.70;99.90;;;;;;4973993;28;20560;-54
2021/09/27 07:45:33;;;;;;;29.17;25.98;;;17.70;99.90;;;;;;4973997;28;20035;-56
2021/09/27 07:47:59;;;;;;;29.17;25.98;;;17.70;99.90;;;;;;4973951;28;20030;-53
2021/09/27 07:50:25;;;;;;;26.80;23.92;;;17.70;99.90;;;;;;4972421;28;20274;-54
2021/09/27 07:52:50;;;;;;;27.38;23.90;;;17.70;99.90;;;;;;4973860;28;20030;-51
2021/09/27 07:55:16;;;;;;;27.27;23.92;;;17.70;99.90;;;;;;4974028;28;20069;-51
2021/09/27 07:57:42;;;;;;;26.65;22.63;;;17.80;99.90;;;;;;4973792;28;20034;-53
2021/09/27 08:00:10;;;;;;;30.38;24.77;;;17.80;99.90;;;;;;4973371;28;20390;-55
2021/09/27 08:02:36;;;;;;;28.75;24.60;;;17.80;99.90;;;;;;4973662;28;20561;-55
2021/09/27 08:05:02;;;;;;;28.52;22.40;;;17.90;99.90;;;;;;4973778;28;20054;-54
2021/09/27 08:07:28;;;;;;;27.80;22.98;;;17.90;99.90;;;;;;4973504;28;20093;-56
2021/09/27 08:09:54;;;;;;;29.85;24.40;;;17.90;99.90;;;;;;4973505;28;20441;-54
2021/09/27 08:12:20;;;;;;;30.10;24.92;;;17.90;99.90;;;;;;4973277;28;20035;-51
2021/09/27 08:14:46;;;;;;;32.63;24.45;;;17.90;99.90;;;;;;4973229;28;20031;-52
2021/09/27 08:17:11;;;;;;;26.60;23.65;;;18.00;99.90;;;;;;4973384;28;20039;-55
2021/09/27 08:19:41;;;;;;;31.05;24.83;;;18.00;99.90;;;;;;4973070;28;20505;-54
2021/09/27 08:22:07;;;;;;;29.10;25.55;;;18.00;99.90;;;;;;4971809;28;20493;-53
2021/09/27 08:24:32;;;;;;;30.45;24.17;;;18.00;99.90;;;;;;4972897;28;20098;-52
2021/09/27 08:27:00;;;;;;;30.77;25.17;;;18.10;99.90;;;;;;4971649;28;20069;-56
2021/09/27 08:29:25;;;;;;;30.35;25.50;;;18.10;99.90;;;;;;4973363;28;20053;-53
2021/09/27 08:31:51;;;;;;;31.10;23.60;;;18.10;99.90;;;;;;4955563;28;20550;-52
2021/09/27 08:34:17;;;;;;;28.23;24.98;;;18.20;99.90;;;;;;4973134;28;20508;-53
2021/09/27 08:36:43;;;;;;;31.85;26.75;;;18.10;99.90;;;;;;4972896;28;20030;-56
2021/09/27 08:39:10;;;;;;;35.80;26.17;;;18.10;99.90;;;;;;4972673;28;20023;-56
2021/09/27 08:42:00;;;;;;;29.92;25.10;;;18.20;99.90;;;;;;4971101;28;20062;-54
2021/09/27 08:44:41;;;;;;;29.98;26.23;;;18.20;99.90;;;;;;4973040;28;20018;-54
2021/09/27 08:47:30;;;;;;;29.92;25.08;;;18.20;99.90;;;;;;4971922;28;20023;-56
2021/09/27 08:50:08;;;;;;;31.75;24.70;;;18.20;99.90;;;;;;4971673;28;20544;-56
2021/09/27 08:52:39;;;;;;;30.88;25.25;;;18.20;99.90;;;;;;4972654;28;20042;-56
2021/09/27 08:55:09;;;;;;;30.13;26.73;;;18.20;99.90;;;;;;4972661;28;20027;-55
2021/09/27 08:57:56;;;;;;;28.40;24.50;;;18.20;99.90;;;;;;4972655;28;20038;-54
2021/09/27 09:00:28;;;;;;;30.30;25.48;;;18.10;99.90;;;;;;4972277;28;20081;-57
2021/09/27 09:03:14;;;;;;;30.45;25.67;;;18.20;99.90;;;;;;4972405;28;20049;-53
2021/09/27 09:05:52;;;;;;;;;;;18.10;99.90;;;;;;4972625;28;20054;-56
2021/09/27 09:08:33;;;;;;;28.45;24.38;;;18.10;99.90;;;;;;4972314;28;19910;-57
2021/09/27 09:11:04;;;;;;;28.52;24.33;;;18.20;99.90;;;;;;4972257;28;20019;-52
2021/09/27 09:14:01;;;;;;;28.75;24.60;;;18.10;99.90;;;;;;4972535;28;20023;-56
2021/09/27 09:16:28;;;;;;;32.90;25.88;;;18.20;99.90;;;;;;4970893;28;20030;-55
2021/09/27 09:18:58;;;;;;;30.98;24.45;;;18.20;99.90;;;;;;4972209;28;20109;-53
2021/09/27 09:21:38;;;;;;;31.02;26.38;;;18.20;99.90;;;;;;4972065;28;20472;-54
2021/09/27 09:24:12;;;;;;;26.85;23.23;;;18.20;99.90;;;;;;4971654;28;20023;-54
2021/09/27 09:26:50;;;;;;;32.00;25.70;;;18.30;99.90;;;;;;4971731;28;20035;-54
2021/09/27 09:29:20;;;;;;;29.48;25.38;;;18.30;99.90;;;;;;5177666;22;20045;-55
2021/09/27 09:31:52;;;;;;;31.23;25.58;;;18.30;99.90;;;;;;4991038;28;20046;-55
2021/09/27 09:34:18;;;;;;;30.35;26.52;;;18.40;99.90;;;;;;4991241;28;20612;-52
2021/09/27 09:36:45;;;;;;;29.38;24.67;;;18.50;99.90;;;;;;4989751;28;20150;-52
2021/09/27 09:39:20;;;;;;;31.98;24.77;;;18.50;99.90;;;;;;4990762;28;20104;-52
2021/09/27 09:41:56;;;;;;;32.35;24.25;;;18.60;99.90;;;;;;4990417;28;20026;-51
2021/09/27 09:44:41;;;;;;;30.13;24.98;;;18.70;99.90;;;;;;4991061;28;20416;-52
2021/09/27 09:47:22;;;;;;;31.52;25.42;;;18.80;99.90;;;;;;4990963;28;20045;-55
2021/09/27 09:50:12;;;;;;;29.83;25.42;;;18.90;99.90;;;;;;4990449;28;20109;-50
2021/09/27 09:52:40;;;;;;;30.30;25.60;;;18.90;99.90;;;;;;4990832;28;20037;-51
2021/09/27 09:55:31;;;;;;;29.55;24.10;;;19.00;99.90;;;;;;4990994;28;20054;-55
2021/09/27 09:58:12;;;;;;;32.13;26.73;;;19.10;99.90;;;;;;4990749;28;20370;-51
2021/09/27 10:00:50;;;;;;;28.65;25.30;;;19.10;99.90;;;;;;4990508;28;20030;-53
2021/09/27 10:03:36;;;;;;;28.70;25.17;;;19.20;99.90;;;;;;4990880;28;20117;-49
2021/09/27 10:06:10;;;;;;;28.65;25.55;;;19.30;99.90;;;;;;4990646;28;20548;-54
2021/09/27 10:08:37;;;;;;;27.30;23.35;;;19.40;99.90;;;;;;4990704;28;20057;-52
2021/09/27 10:11:10;;;;;;;30.88;24.45;;;19.40;99.90;;;;;;4989384;28;20049;-52
2021/09/27 10:13:43;;;;;;;30.38;25.92;;;19.50;99.90;;;;;;4990836;28;20069;-53
2021/09/27 10:16:33;;;;;;;29.10;25.38;;;19.50;99.90;;;;;;4990774;28;20052;-50
2021/09/27 10:19:43;;;;;;;29.70;26.50;;;19.40;99.90;;;;;;4990692;28;20058;-49
2021/09/27 10:22:12;;;;;;;28.42;25.35;;;19.50;99.90;;;;;;4988105;28;20644;-52
2021/09/27 10:24:50;;;;;;;32.47;27.25;;;19.50;99.90;;;;;;4989111;28;20459;-54
2021/09/27 10:27:44;;;;;;;26.38;23.52;;;19.60;99.90;;;;;;4990673;28;20080;-51
2021/09/27 10:30:14;;;;;;;27.65;24.58;;;19.60;99.90;;;;;;4990320;28;20505;-52
2021/09/27 10:32:45;;;;;;;28.30;25.23;;;19.70;99.90;;;;;;4990642;28;20030;-50
2021/09/27 10:35:32;;;;;;;28.27;23.73;;;19.80;99.90;;;;;;4992310;28;20041;-52
2021/09/27 10:38:05;;;;;;;30.40;24.42;;;19.90;99.90;;;;;;4994069;28;20105;-56
2021/09/27 10:40:32;;;;;;;26.83;23.92;;;20.00;99.90;;;;;;4993938;28;20563;-49
2021/09/27 10:42:59;;;;;;;28.70;22.33;;;20.00;99.90;;;;;;4993881;28;20136;-50
2021/09/27 10:45:26;;;;;;;25.15;22.38;;;20.10;99.90;;;;;;4994121;28;20022;-51
2021/09/27 10:47:55;;;;;;;29.55;23.52;;;20.10;99.90;;;;;;4994407;28;20076;-51
2021/09/27 10:50:46;;;;;;;32.33;25.42;;;20.10;99.90;;;;;;4993922;28;20041;-55
2021/09/27 10:53:30;;;;;;;24.40;21.77;;;20.10;99.90;;;;;;4993723;28;20046;-50
2021/09/27 10:56:24;;;;;;;26.77;21.95;;;20.10;99.90;;;;;;4993956;28;20027;-52
2021/09/27 10:59:03;;;;;;;24.83;20.15;;;20.10;99.90;;;;;;4993502;28;20034;-56
2021/09/27 11:01:37;;;;;;;25.50;21.67;;;20.20;99.90;;;;;;4993865;28;20030;-53
2021/09/27 11:04:25;;;;;;;27.75;22.50;;;20.30;99.90;;;;;;4993671;28;20041;-52
2021/09/27 11:06:55;;;;;;;23.08;20.75;;;20.40;99.90;;;;;;4992939;28;20109;-54
2021/09/27 11:09:36;;;;;;;24.70;20.30;;;20.50;99.90;;;;;;4993402;28;20402;-53
2021/09/27 11:12:19;;;;;;;25.33;22.15;;;20.50;99.90;;;;;;4993816;28;20030;-52
2021/09/27 11:14:51;;;;;;;24.67;20.42;;;20.50;99.90;;;;;;4993664;28;20022;-52
2021/09/27 11:17:16;;;;;;;21.48;19.17;;;20.60;99.90;;;;;;4993903;28;20041;-56
2021/09/27 11:19:43;;;;;;;22.38;19.60;;;20.60;99.90;;;;;;4993650;28;20492;-52
2021/09/27 11:22:17;;;;;;;23.65;21.02;;;20.70;99.90;;;;;;4993794;28;20092;-54
2021/09/27 11:24:43;;;;;;;21.50;19.27;;;20.70;99.90;;;;;;4993381;28;20022;-56
2021/09/27 11:27:11;;;;;;;23.35;19.83;;;20.70;99.90;;;;;;4993520;28;20089;-49
2021/09/27 11:29:36;;;;;;;21.65;19.35;;;20.70;99.90;;;;;;4993628;28;20503;-54
2021/09/27 11:32:22;;;;;;;23.13;20.65;;;20.70;99.90;;;;;;4993520;28;20030;-54
2021/09/27 11:34:59;;;;;;;20.92;18.13;;;20.80;99.90;;;;;;4993531;28;20026;-54
2021/09/27 11:37:56;;;;;;;22.23;19.60;;;20.80;99.90;;;;;;4993254;28;20044;-54
2021/09/27 11:40:24;;;;;;;20.42;18.25;;;20.70;99.90;;;;;;4992951;28;20019;-54
2021/09/27 11:42:56;;;;;;;22.58;18.20;;;20.80;99.90;;;;;;4993029;28;20164;-55
2021/09/27 11:45:39;;;;;;;20.02;17.90;;;20.80;99.90;;;;;;4993143;28;20029;-51
2021/09/27 11:48:20;;;;;;;21.20;18.38;;;20.80;99.90;;;;;;4992638;28;20018;-56
2021/09/27 11:50:55;;;;;;;19.35;17.15;;;20.80;99.90;;;;;;4992861;28;20026;-53
2021/09/27 11:53:39;;;;;;;19.23;17.25;;;20.80;99.90;;;;;;4991785;28;20029;-54
2021/09/27 11:56:17;;;;;;;19.13;16.98;;;20.80;99.90;;;;;;4993213;28;20061;-56
2021/09/27 11:58:55;;;;;;;17.25;15.55;;;20.90;99.90;;;;;;4991901;28;20433;-54
2021/09/27 12:01:27;;;;;;;18.08;16.27;;;20.90;99.90;;;;;;4992640;28;20484;-54
2021/09/27 12:04:17;;;;;;;18.83;16.83;;;21.00;99.90;;;;;;4992839;28;20081;-51
2021/09/27 12:06:49;;;;;;;22.83;15.70;;;21.10;99.90;;;;;;4992725;28;20057;-51
2021/09/27 12:09:47;;;;;;;16.88;15.18;;;21.10;99.90;;;;;;4992429;28;20034;-51
2021/09/27 12:12:28;;;;;;;16.42;14.73;;;21.00;99.90;;;;;;4992152;28;20042;-53
2021/09/27 12:14:59;;;;;;;16.00;14.27;;;21.00;99.90;;;;;;4992603;28;20022;-52
2021/09/27 12:17:32;;;;;;;17.08;15.32;;;21.00;99.90;;;;;;4992511;28;20030;-53
2021/09/27 12:20:02;;;;;;;14.52;13.18;;;21.00;99.90;;;;;;4990879;28;20030;-57
2021/09/27 12:22:42;;;;;;;17.45;14.38;;;21.00;99.90;;;;;;4992229;28;20489;-54
2021/09/27 12:25:11;;;;;;;15.23;13.68;;;21.00;99.90;;;;;;4992436;28;20018;-56
2021/09/27 12:27:48;;;;;;;14.68;13.25;;;21.10;99.90;;;;;;4992716;28;20019;-54
2021/09/27 12:30:15;;;;;;;14.93;13.25;;;21.10;99.90;;;;;;4991927;28;20118;-54
2021/09/27 12:32:48;;;;;;;15.10;13.50;;;21.10;99.90;;;;;;4992161;28;20504;-55
2021/09/27 12:35:38;;;;;;;16.60;14.88;;;21.10;99.90;;;;;;4992268;28;20048;-55
2021/09/27 12:38:05;;;;;;;15.20;13.68;;;21.20;99.90;;;;;;4992266;28;20396;-55
2021/09/27 12:40:41;;;;;;;15.93;14.43;;;21.10;99.90;;;;;;4991806;28;20023;-53
2021/09/27 12:43:12;;;;;;;;;;;21.10;99.90;;;;;;4992441;28;20034;-54
2021/09/27 12:45:44;;;;;;;17.08;14.68;;;21.20;99.90;;;;;;4992042;28;19906;-55
2021/09/27 12:48:15;;;;;;;15.15;13.65;;;21.20;99.90;;;;;;4991880;28;20030;-56
2021/09/27 12:50:48;;;;;;;15.45;13.90;;;21.20;99.90;;;;;;4991499;28;20031;-54
2021/09/27 12:53:16;;;;;;;14.98;13.60;;;21.20;99.90;;;;;;4991790;28;20061;-55
2021/09/27 12:55:53;;;;;;;14.70;12.70;;;21.20;99.90;;;;;;4991742;28;20038;-56
2021/09/27 12:58:30;;;;;;;13.30;12.10;;;21.10;99.90;;;;;;4990963;28;20018;-55
2021/09/27 13:00:58;;;;;;;15.52;12.95;;;21.20;99.90;;;;;;4991842;28;20068;-55
2021/09/27 13:03:26;;;;;;;14.18;12.68;;;21.20;99.90;;;;;;4991746;28;20149;-51
2021/09/27 13:06:28;;;;;;;14.32;12.95;;;21.20;99.90;;;;;;4991461;28;20026;-56
2021/09/27 13:09:28;;;;;;;13.38;12.18;;;21.20;99.90;;;;;;4991351;28;20018;-54
2021/09/27 13:12:22;;;;;;;15.38;13.38;;;21.30;99.90;;;;;;4990140;28;20528;-55
2021/09/27 13:14:54;;;;;;;14.02;12.48;;;21.30;99.90;;;;;;4991093;28;20034;-56
2021/09/27 13:17:30;;;;;;;12.48;11.27;;;21.30;99.90;;;;;;4991387;28;20031;-54
2021/09/27 13:19:58;;;;;;;12.70;11.25;;;21.30;99.90;;;;;;4991065;28;20031;-57